Time;durP1;ratioP1;P1;durP2;ratioP2;P2;SDS_P1;SDS_P2;PMS_P1;PMS_P2;Temp;Humidity;BMP_temperature;BMP_pressure;BME280_temperature;BME280_humidity;BME280_pressure;Samples;Min_cycle;Max_cycle;Signal;HPM_P1;HPM_P2
2023/01/09 00:01:46;;;;;;;;;;;;;;;-1.40;82.57;95529.03;5033466;28;1539;-50
2023/01/09 00:04:13;;;;;;;;;;;;;;;-1.45;83.59;95522.34;5033342;28;1981;-49
2023/01/09 00:06:41;;;;;;;;;;;;;;;-1.36;83.43;95528.88;5033444;28;1025;-50
2023/01/09 00:09:08;;;;;;;;;;;;;;;-1.27;82.76;95523.13;5033585;28;1003;-50
2023/01/09 00:11:34;;;;;;;;;;;;;;;-1.26;82.50;95525.69;5033393;28;1020;-50
2023/01/09 00:14:00;;;;;;;;;;;;;;;-1.28;83.28;95527.53;5033549;28;971;-50
2023/01/09 00:16:26;;;;;;;;;;;;;;;-1.23;83.95;95524.69;5033369;28;1020;-50
2023/01/09 00:18:52;;;;;;;;;;;;;;;-1.27;83.10;95521.38;5033521;28;1088;-50
2023/01/09 00:21:18;;;;;;;;;;;;;;;-1.24;83.34;95521.19;5033207;28;1005;-50
2023/01/09 00:23:44;;;;;;;;;;;;;;;-1.34;81.40;95524.41;5033356;28;1906;-50
2023/01/09 00:26:12;;;;;;;;;;;;;;;-1.37;81.23;95535.88;5034155;28;1006;-50
2023/01/09 00:28:38;;;;;;;;;;;;;;;-1.33;81.14;95536.59;5037324;28;1955;-50
2023/01/09 00:31:05;;;;;;;;;;;;;;;-1.23;81.92;95527.31;5037294;28;1219;-50
2023/01/09 00:33:33;;;;;;;;;;;;;;;-1.32;81.15;95522.56;5037264;28;1079;-50
2023/01/09 00:35:59;;;;;;;;;;;;;;;-1.34;81.71;95527.03;5037231;28;1080;-50
2023/01/09 00:38:25;;;;;;;;;;;;;;;-1.52;80.90;95520.94;5019811;28;1062;-50
2023/01/09 00:40:53;;;;;;;;;;;;;;;-1.75;82.33;95525.59;5037077;28;1958;-50
2023/01/09 00:43:19;;;;;;;;;;;;;;;-1.65;82.40;95518.09;5036981;28;1899;-50
2023/01/09 00:45:45;;;;;;;;;;;;;;;-1.72;81.56;95527.22;5019607;28;1042;-50
2023/01/09 00:48:13;;;;;;;;;;;;;;;-1.73;82.46;95523.72;5037005;28;1029;-51
2023/01/09 00:50:40;;;;;;;;;;;;;;;-1.52;82.70;95513.91;5036947;28;1065;-50
2023/01/09 00:53:08;;;;;;;;;;;;;;;-1.27;82.68;95508.25;5036837;28;1036;-50
2023/01/09 00:55:35;;;;;;;;;;;;;;;-1.17;82.06;95511.25;5036814;28;1075;-50
2023/01/09 00:58:01;;;;;;;;;;;;;;;-1.23;82.21;95514.19;5036785;28;1032;-50
2023/01/09 01:00:27;;;;;;;;;;;;;;;-1.29;81.60;95509.25;5036744;28;1090;-50
2023/01/09 01:02:54;;;;;;;;;;;;;;;-1.47;81.65;95506.66;5036771;28;1910;-50
2023/01/09 01:08:15;;;;;;;;;;;;;;;-1.51;81.62;95507.75;5036842;28;985;-50
2023/01/09 01:10:41;;;;;;;;;;;;;;;-1.54;81.17;95499.19;5036756;28;1048;-50
2023/01/09 01:13:08;;;;;;;;;;;;;;;-1.71;81.76;95503.53;5036480;28;1070;-50
2023/01/09 01:15:34;;;;;;;;;;;;;;;-1.73;82.11;95494.91;5036598;28;1021;-50
2023/01/09 01:18:00;;;;;;;;;;;;;;;-2.02;83.40;95499.84;5036487;28;1272;-49
2023/01/09 01:20:26;;;;;;;;;;;;;;;-1.94;83.77;95485.50;5036647;28;1098;-50
2023/01/09 01:22:52;;;;;;;;;;;;;;;-1.83;83.13;95485.81;5036486;28;1985;-50
2023/01/09 01:25:18;;;;;;;;;;;;;;;-1.74;82.93;95480.09;5036535;28;1279;-50
2023/01/09 01:27:45;;;;;;;;;;;;;;;-1.92;84.32;95479.25;5036421;28;1054;-50
2023/01/09 01:30:12;;;;;;;;;;;;;;;-1.80;83.85;95476.03;5036192;28;1051;-50
2023/01/09 01:32:39;;;;;;;;;;;;;;;-1.63;82.23;95467.28;5036233;28;1020;-49
2023/01/09 01:35:05;;;;;;;;;;;;;;;-2.19;78.34;95477.09;5036298;28;977;-50
2023/01/09 01:37:32;;;;;;;;;;;;;;;-2.28;81.87;95464.44;5035424;28;1033;-50
2023/01/09 01:39:58;;;;;;;;;;;;;;;-2.19;82.91;95463.16;5035923;28;1182;-50
2023/01/09 01:42:25;;;;;;;;;;;;;;;-2.09;83.08;95458.28;5035900;28;1011;-50
2023/01/09 01:44:57;;;;;;;;;;;;;;;-1.98;82.29;95459.44;5035956;28;1988;-50
2023/01/09 01:47:29;;;;;;;;;;;;;;;-2.02;81.69;95449.22;5035898;28;1177;-50
2023/01/09 01:49:55;;;;;;;;;;;;;;;-1.94;81.27;95448.81;5036021;28;1044;-50
2023/01/09 01:52:22;;;;;;;;;;;;;;;-2.07;80.73;95441.56;5035902;28;1022;-50
2023/01/09 01:54:48;;;;;;;;;;;;;;;-2.38;83.40;95455.34;5035915;28;960;-50
2023/01/09 01:57:15;;;;;;;;;;;;;;;-2.31;83.46;95455.91;5035750;28;1000;-50
2023/01/09 01:59:48;;;;;;;;;;;;;;;-2.11;83.02;95444.44;5035643;28;984;-50
2023/01/09 02:02:19;;;;;;;;;;;;;;;-1.89;81.63;95434.56;5035486;28;1365;-50
2023/01/09 02:04:46;;;;;;;;;;;;;;;-1.81;82.23;95429.75;5035808;28;1883;-50
2023/01/09 02:07:13;;;;;;;;;;;;;;;-1.70;82.16;95438.84;5035587;28;1020;-50
2023/01/09 02:09:40;;;;;;;;;;;;;;;-1.82;81.44;95425.44;5035630;28;951;-50
2023/01/09 02:12:25;;;;;;;;;;;;;;;-2.03;81.24;95431.78;5035399;28;976;-50
2023/01/09 02:14:58;;;;;;;;;;;;;;;-2.13;82.87;95435.78;5035407;28;1053;-50
2023/01/09 02:17:39;;;;;;;;;;;;;;;-2.02;82.98;95433.47;5035361;28;1091;-50
2023/01/09 02:20:24;;;;;;;;;;;;;;;-1.90;82.67;95432.84;5035351;28;1042;-50
2023/01/09 02:23:09;;;;;;;;;;;;;;;-2.07;79.89;95435.47;5035324;28;1178;-50
2023/01/09 02:25:53;;;;;;;;;;;;;;;-2.12;80.24;95440.13;5035424;28;1046;-50
2023/01/09 02:28:38;;;;;;;;;;;;;;;-2.13;81.31;95441.03;5035213;28;1134;-50
2023/01/09 02:31:24;;;;;;;;;;;;;;;-2.05;82.57;95429.25;5034965;28;1036;-50
2023/01/09 02:33:50;;;;;;;;;;;;;;;-2.14;82.78;95427.09;5034895;28;1658;-50
2023/01/09 02:36:22;;;;;;;;;;;;;;;-2.05;82.85;95423.16;5034957;28;1088;-50
2023/01/09 02:38:54;;;;;;;;;;;;;;;-1.98;81.86;95424.53;5034914;28;1097;-50
2023/01/09 02:41:24;;;;;;;;;;;;;;;-1.97;81.43;95426.25;5034851;28;1037;-50
2023/01/09 02:44:08;;;;;;;;;;;;;;;-2.14;80.69;95424.47;5035072;28;1985;-50
2023/01/09 02:46:34;;;;;;;;;;;;;;;-2.29;80.18;95423.47;5035016;28;1024;-50
2023/01/09 02:49:00;;;;;;;;;;;;;;;-2.24;81.23;95428.47;5034614;28;973;-50
2023/01/09 02:51:36;;;;;;;;;;;;;;;-2.27;80.42;95426.88;5034713;28;1075;-50
2023/01/09 02:54:07;;;;;;;;;;;;;;;-2.28;80.45;95427.78;5034545;28;1032;-50
2023/01/09 02:56:38;;;;;;;;;;;;;;;-2.41;79.57;95424.94;5034695;28;1010;-50
2023/01/09 02:59:14;;;;;;;;;;;;;;;-2.50;81.44;95429.75;5034676;28;1065;-50
2023/01/09 03:01:42;;;;;;;;;;;;;;;-2.37;81.21;95436.94;5034481;28;1106;-50
2023/01/09 03:04:13;;;;;;;;;;;;;;;-2.20;81.23;95427.38;5034467;28;1984;-50
2023/01/09 03:06:42;;;;;;;;;;;;;;;-2.32;80.64;95436.72;5034454;28;922;-50
2023/01/09 03:09:13;;;;;;;;;;;;;;;-2.32;80.75;95431.47;5034568;28;1054;-50
2023/01/09 03:11:43;;;;;;;;;;;;;;;-2.35;81.15;95431.66;5034342;28;1063;-50
2023/01/09 03:14:13;;;;;;;;;;;;;;;-2.65;79.80;95434.84;5016727;28;1274;-50
2023/01/09 03:16:41;;;;;;;;;;;;;;;-2.65;81.13;95429.59;5034232;28;1079;-50
2023/01/09 03:19:10;;;;;;;;;;;;;;;-2.48;81.43;95435.78;5034185;28;1035;-50
2023/01/09 03:21:37;;;;;;;;;;;;;;;-2.40;81.54;95441.50;5034397;28;1113;-50
2023/01/09 03:24:03;;;;;;;;;;;;;;;-2.63;80.22;95433.00;5034322;28;1906;-50
2023/01/09 03:26:29;;;;;;;;;;;;;;;-2.89;81.67;95436.84;5034185;28;1042;-50
2023/01/09 03:28:56;;;;;;;;;;;;;;;-2.74;81.71;95437.88;5034000;28;1012;-50
2023/01/09 03:31:22;;;;;;;;;;;;;;;-2.59;81.73;95434.53;5033936;28;1012;-50
2023/01/09 03:33:48;;;;;;;;;;;;;;;-2.51;81.56;95430.69;5016429;28;1024;-50
2023/01/09 03:36:15;;;;;;;;;;;;;;;-2.42;81.11;95440.72;5033765;28;1032;-50
2023/01/09 03:38:41;;;;;;;;;;;;;;;-2.56;81.96;95423.06;5033901;28;1091;-50
2023/01/09 03:41:07;;;;;;;;;;;;;;;-2.74;82.13;95435.28;5016190;28;1017;-50
2023/01/09 03:43:34;;;;;;;;;;;;;;;-2.73;81.01;95429.13;5033805;28;1989;-49
2023/01/09 03:46:00;;;;;;;;;;;;;;;-2.70;81.33;95430.75;5033868;28;957;-50
2023/01/09 03:48:26;;;;;;;;;;;;;;;-2.54;82.28;95429.09;5033736;28;1046;-50
2023/01/09 03:50:53;;;;;;;;;;;;;;;-2.46;81.41;95426.94;5033994;28;1355;-50
2023/01/09 03:53:19;;;;;;;;;;;;;;;-2.47;81.15;95427.00;5033522;28;1169;-50
2023/01/09 03:55:47;;;;;;;;;;;;;;;-2.74;80.35;95427.41;5033763;28;1377;-50
2023/01/09 03:58:13;;;;;;;;;;;;;;;-2.70;80.61;95422.88;5033652;28;1024;-50
2023/01/09 04:00:40;;;;;;;;;;;;;;;-2.71;80.44;95422.06;5032841;28;1104;-50
2023/01/09 04:03:07;;;;;;;;;;;;;;;-2.82;79.68;95427.78;5033338;28;1910;-50
2023/01/09 04:05:33;;;;;;;;;;;;;;;-2.73;79.91;95431.75;5033732;28;948;-50
2023/01/09 04:07:59;;;;;;;;;;;;;;;-2.68;80.71;95421.88;5033626;28;1074;-50
2023/01/09 04:10:25;;;;;;;;;;;;;;;-2.86;79.27;95421.00;5033480;28;1011;-50
2023/01/09 04:12:51;;;;;;;;;;;;;;;-2.97;80.17;95431.97;5033471;28;963;-50
2023/01/09 04:15:17;;;;;;;;;;;;;;;-2.88;81.32;95435.06;5033175;28;1024;-50
2023/01/09 04:17:43;;;;;;;;;;;;;;;-2.88;81.00;95429.84;5033208;28;963;-50
2023/01/09 04:20:10;;;;;;;;;;;;;;;-3.03;81.43;95434.91;5033529;28;1209;-50
2023/01/09 04:22:36;;;;;;;;;;;;;;;-3.09;82.94;95416.88;5033487;28;966;-49
2023/01/09 04:25:02;;;;;;;;;;;;;;;-2.89;82.91;95412.47;5033423;28;1910;-50
2023/01/09 04:27:28;;;;;;;;;;;;;;;-2.70;81.32;95417.66;5033267;28;1857;-50
2023/01/09 04:29:54;;;;;;;;;;;;;;;-2.69;81.27;95421.94;5033278;28;963;-50
2023/01/09 04:32:20;;;;;;;;;;;;;;;-2.70;81.08;95426.34;5033079;28;1096;-50
2023/01/09 04:34:46;;;;;;;;;;;;;;;-2.95;80.42;95427.53;5033454;28;1129;-50
2023/01/09 04:37:12;;;;;;;;;;;;;;;-2.92;81.05;95421.31;5033233;28;1030;-50
2023/01/09 04:39:42;;;;;;;;;;;;;;;-2.78;81.59;95418.88;5015762;28;1007;-50
2023/01/09 04:42:08;;;;;;;;;;;;;;;-2.69;81.87;95420.19;5033036;28;981;-50
2023/01/09 04:44:34;;;;;;;;;;;;;;;-2.68;81.52;95418.44;5033076;28;1989;-50
2023/01/09 04:47:00;;;;;;;;;;;;;;;-2.70;80.88;95415.88;5032559;28;1028;-50
2023/01/09 04:49:26;;;;;;;;;;;;;;;-2.89;80.23;95412.47;5033055;28;1079;-49
2023/01/09 04:51:52;;;;;;;;;;;;;;;-3.13;80.41;95415.28;5032957;28;1028;-50
2023/01/09 04:54:19;;;;;;;;;;;;;;;-3.20;81.81;95419.16;5033058;28;959;-49
2023/01/09 04:56:45;;;;;;;;;;;;;;;-3.12;82.15;95430.09;5033049;28;1574;-50
2023/01/09 04:59:11;;;;;;;;;;;;;;;-2.87;81.96;95431.53;5033008;28;1037;-50
2023/01/09 05:01:37;;;;;;;;;;;;;;;-2.99;78.57;95435.59;5032726;28;1217;-50
2023/01/09 05:04:04;;;;;;;;;;;;;;;-3.27;79.35;95426.41;5033128;28;1989;-50
2023/01/09 05:06:30;;;;;;;;;;;;;;;-3.41;80.40;95434.06;5033043;28;1016;-50
2023/01/09 05:08:56;;;;;;;;;;;;;;;-3.40;80.79;95433.97;5033080;28;1124;-50
2023/01/09 05:11:24;;;;;;;;;;;;;;;-3.31;80.42;95430.09;5032941;28;959;-50
2023/01/09 05:13:51;;;;;;;;;;;;;;;-3.24;80.34;95430.66;5036048;28;1044;-50
2023/01/09 05:16:17;;;;;;;;;;;;;;;-3.21;80.58;95425.28;5036463;28;1024;-50
2023/01/09 05:18:43;;;;;;;;;;;;;;;-3.05;80.66;95420.19;5036401;28;1126;-50
2023/01/09 05:21:09;;;;;;;;;;;;;;;-3.01;79.83;95422.59;5036608;28;968;-50
2023/01/09 05:23:35;;;;;;;;;;;;;;;-3.07;79.23;95425.50;5036361;28;1918;-50
2023/01/09 05:26:03;;;;;;;;;;;;;;;-3.13;79.50;95423.16;5018881;28;955;-50
2023/01/09 05:28:29;;;;;;;;;;;;;;;-3.31;79.09;95418.78;5036219;28;1176;-50
2023/01/09 05:30:56;;;;;;;;;;;;;;;-3.29;79.74;95412.56;5036142;28;1758;-50
2023/01/09 05:33:22;;;;;;;;;;;;;;;-3.37;79.08;95423.38;5036164;28;1200;-50
2023/01/09 05:35:48;;;;;;;;;;;;;;;-3.46;78.87;95418.56;5036348;28;1053;-49
2023/01/09 05:38:14;;;;;;;;;;;;;;;-3.45;80.41;95419.41;5036264;28;1032;-50
2023/01/09 05:40:40;;;;;;;;;;;;;;;-3.41;80.75;95407.91;5036030;28;1020;-50
2023/01/09 05:43:07;;;;;;;;;;;;;;;-3.20;81.80;95408.69;5036001;28;1906;-50
2023/01/09 05:45:33;;;;;;;;;;;;;;;-2.94;80.10;95404.81;5018312;28;950;-50
2023/01/09 05:47:59;;;;;;;;;;;;;;;-2.97;79.43;95392.72;5018440;28;1016;-50
2023/01/09 05:50:25;;;;;;;;;;;;;;;-2.93;79.63;95398.66;5036001;28;1050;-50
2023/01/09 05:52:51;;;;;;;;;;;;;;;-3.01;79.26;95400.81;5018486;28;1047;-50
2023/01/09 05:55:17;;;;;;;;;;;;;;;-2.98;79.68;95398.91;5035772;28;1045;-50
2023/01/09 05:57:43;;;;;;;;;;;;;;;-3.15;78.40;95398.84;5035790;28;910;-50
2023/01/09 06:00:10;;;;;;;;;;;;;;;-3.22;79.77;95393.06;5035603;28;1237;-50
2023/01/09 06:02:36;;;;;;;;;;;;;;;-3.29;80.02;95393.41;5035808;28;1050;-50
2023/01/09 06:05:02;;;;;;;;;;;;;;;-3.25;80.88;95400.19;5035664;28;1906;-50
2023/01/09 06:07:28;;;;;;;;;;;;;;;-3.07;80.16;95386.25;5035503;28;1010;-50
2023/01/09 06:09:54;;;;;;;;;;;;;;;-3.16;79.37;95390.16;5035693;28;985;-49
2023/01/09 06:12:20;;;;;;;;;;;;;;;-3.05;79.76;95388.81;5035483;28;1017;-50
2023/01/09 06:14:46;;;;;;;;;;;;;;;-2.97;79.91;95386.66;5035397;28;1025;-50
2023/01/09 06:17:12;;;;;;;;;;;;;;;-3.29;76.24;95388.19;5035358;28;1013;-50
2023/01/09 06:19:38;;;;;;;;;;;;;;;-3.59;77.24;95384.28;5035461;28;1041;-50
2023/01/09 06:22:04;;;;;;;;;;;;;;;-3.55;79.02;95383.25;5017805;28;1041;-50
2023/01/09 06:24:30;;;;;;;;;;;;;;;-3.35;79.68;95384.94;5034634;28;1985;-50
2023/01/09 06:26:56;;;;;;;;;;;;;;;-3.33;79.14;95385.69;5017831;28;1036;-50
2023/01/09 06:29:22;;;;;;;;;;;;;;;-3.44;79.39;95377.50;5035035;28;1004;-50
2023/01/09 06:31:48;;;;;;;;;;;;;;;-3.25;79.41;95367.03;5035316;28;1017;-49
2023/01/09 06:34:14;;;;;;;;;;;;;;;-3.15;79.68;95372.69;5034788;28;1080;-50
2023/01/09 06:36:40;;;;;;;;;;;;;;;-2.85;78.70;95379.97;5034178;28;1041;-50
2023/01/09 06:39:07;;;;;;;;;;;;;;;-2.32;75.45;95378.25;5034800;28;1019;-50
2023/01/09 06:41:33;;;;;;;;;;;;;;;-1.00;70.91;95390.44;5034526;28;1103;-50
2023/01/09 06:43:59;;;;;;;;;;;;;;;0.72;64.69;95392.66;5034466;28;1910;-50
2023/01/09 06:46:25;;;;;;;;;;;;;;;1.95;60.10;95386.50;5034569;28;1032;-50
2023/01/09 06:48:51;;;;;;;;;;;;;;;3.07;56.08;95393.75;5034675;28;938;-49
2023/01/09 06:51:17;;;;;;;;;;;;;;;4.27;52.61;95395.53;5034815;28;1091;-50
2023/01/09 06:53:43;;;;;;;;;;;;;;;5.29;50.38;95393.75;5034623;28;1099;-51
2023/01/09 06:56:09;;;;;;;;;;;;;;;6.19;47.84;95400.66;5035131;28;984;-50
2023/01/09 06:58:35;;;;;;;;;;;;;;;6.39;46.84;95399.81;5016842;28;1107;-51
2023/01/09 07:01:01;;;;;;;;;;;;;;;5.91;46.99;95404.72;5034509;28;1235;-51
2023/01/09 07:03:27;;;;;;;;;;;;;;;5.89;46.83;95390.72;5034465;28;1910;-51
2023/01/09 07:05:53;;;;;;;;;;;;;;;6.71;45.35;95411.31;5034367;28;1013;-51
2023/01/09 07:08:19;;;;;;;;;;;;;;;6.97;44.37;95425.03;5016858;28;1007;-51
2023/01/09 07:10:45;;;;;;;;;;;;;;;7.64;43.62;95415.63;5034331;28;1021;-51
2023/01/09 07:13:11;;;;;;;;;;;;;;;8.25;42.06;95427.88;5034146;28;1032;-51
2023/01/09 07:15:37;;;;;;;;;;;;;;;9.29;40.88;95440.50;5034194;28;1176;-51
2023/01/09 07:18:03;;;;;;;;;;;;;;;9.46;40.01;95434.41;5034165;28;1080;-51
2023/01/09 07:20:29;;;;;;;;;;;;;;;8.82;40.88;95429.84;5041315;28;1409;-52
2023/01/09 07:22:56;;;;;;;;;;;;;;;8.52;41.70;95427.22;5053864;28;966;-50
2023/01/09 07:25:22;;;;;;;;;;;;;;;7.87;42.90;95423.38;5053470;28;1906;-51
2023/01/09 07:27:48;;;;;;;;;;;;;;;7.73;43.41;95424.63;5053932;28;1039;-51
2023/01/09 07:30:14;;;;;;;;;;;;;;;7.95;43.61;95429.69;5054096;28;964;-51
2023/01/09 07:32:41;;;;;;;;;;;;;;;7.37;44.23;95432.22;5053522;28;1031;-50
2023/01/09 07:35:07;;;;;;;;;;;;;;;6.13;47.43;95417.94;5053505;28;1088;-51
2023/01/09 07:37:34;;;;;;;;;;;;;;;4.21;52.62;95403.91;5053207;28;973;-51
2023/01/09 07:43:58;;;;;;;;;;;;;;;2.52;59.99;95372.94;5123577;27;1913;-48
2023/01/09 07:46:24;;;;;;;;;;;;;;;2.19;61.59;95380.53;5134805;27;965;-48
2023/01/09 07:48:50;;;;;;;;;;;;;;;2.72;61.10;95395.28;5134926;27;967;-47
2023/01/09 07:51:16;;;;;;;;;;;;;;;4.83;54.33;95408.84;5134853;27;1045;-47
2023/01/09 07:53:42;;;;;;;;;;;;;;;6.87;49.19;95413.50;5134631;27;1543;-48
2023/01/09 07:56:08;;;;;;;;;;;;;;;7.65;47.07;95416.47;5134394;27;1202;-48
2023/01/09 07:58:34;;;;;;;;;;;;;;;7.32;47.68;95414.00;5134764;27;949;-48
2023/01/09 08:01:00;;;;;;;;;;;;;;;5.93;51.21;95408.91;5134750;27;937;-48
2023/01/09 08:03:26;;;;;;;;;;;;;;;4.03;57.91;95396.41;5134540;27;1994;-47
2023/01/09 08:05:52;;;;;;;;;;;;;;;3.06;62.00;95385.00;5134350;27;1029;-48
2023/01/09 08:08:18;;;;;;;;;;;;;;;2.60;64.59;95384.75;5134454;27;959;-48
2023/01/09 08:10:44;;;;;;;;;;;;;;;2.42;66.14;95397.44;5134752;27;1039;-48
2023/01/09 08:13:11;;;;;;;;;;;;;;;2.40;67.83;95405.44;5134665;27;956;-47
2023/01/09 08:15:37;;;;;;;;;;;;;;;2.04;69.93;95407.00;5134047;27;1059;-48
2023/01/09 08:18:03;;;;;;;;;;;;;;;1.87;71.65;95397.56;5134510;28;993;-48
2023/01/09 08:20:29;;;;;;;;;;;;;;;1.44;73.62;95399.53;5116111;28;1031;-47
2023/01/09 08:22:55;;;;;;;;;;;;;;;1.31;74.48;95402.97;5134375;28;1102;-47
2023/01/09 08:25:21;;;;;;;;;;;;;;;1.43;74.96;95397.88;5133478;28;1909;-48
2023/01/09 08:27:47;;;;;;;;;;;;;;;1.45;75.35;95399.44;5134258;28;1119;-48
2023/01/09 08:30:14;;;;;;;;;;;;;;;1.72;74.71;95398.59;5134439;28;983;-47
2023/01/09 08:32:40;;;;;;;;;;;;;;;1.52;75.40;95408.66;5134374;28;970;-48
2023/01/09 08:35:07;;;;;;;;;;;;;;;1.58;75.87;95401.31;5134098;28;1039;-48
2023/01/09 08:37:33;;;;;;;;;;;;;;;1.83;76.07;95406.63;5134170;28;1110;-47
2023/01/09 08:39:59;;;;;;;;;;;;;;;1.98;76.68;95390.75;5134194;28;1053;-47
2023/01/09 08:47:56;;;;;;;;;;;;;;;2.14;74.77;95386.09;5136132;27;1019;-48
2023/01/09 08:50:22;;;;;;;;;;;;;;;2.12;75.58;95378.28;5138101;27;956;-48
2023/01/09 08:52:48;;;;;;;;;;;;;;;2.41;74.38;95374.59;5138206;27;1095;-48
2023/01/09 08:55:14;;;;;;;;;;;;;;;2.55;73.02;95377.16;5138018;27;1221;-47
2023/01/09 08:57:47;;;;;;;;;;;;;;;2.30;74.78;95375.38;5137975;27;953;-48
2023/01/09 09:00:14;;;;;;;;;;;;;;;2.37;74.78;95378.41;5138122;27;1040;-48
2023/01/09 09:02:40;;;;;;;;;;;;;;;2.25;74.41;95375.66;5137980;27;953;-48
2023/01/09 09:05:06;;;;;;;;;;;;;;;2.54;74.21;95381.59;5119346;27;1902;-48
2023/01/09 09:07:32;;;;;;;;;;;;;;;2.74;74.15;95371.44;5137955;27;971;-48
2023/01/09 09:09:58;;;;;;;;;;;;;;;3.15;72.99;95358.84;5138021;27;959;-48
2023/01/09 09:12:24;;;;;;;;;;;;;;;3.24;72.42;95350.25;5137762;27;1011;-48
2023/01/09 09:17:35;;;;;;;;;;;;;;;3.51;72.87;95339.50;5137637;27;1253;-48
2023/01/09 09:20:01;;;;;;;;;;;;;;;3.69;72.30;95338.09;5137649;27;1086;-48
2023/01/09 09:22:27;;;;;;;;;;;;;;;3.81;70.85;95320.47;5137732;27;984;-48
2023/01/09 09:24:53;;;;;;;;;;;;;;;4.31;70.11;95322.88;5136934;27;1978;-48
2023/01/09 09:27:19;;;;;;;;;;;;;;;4.43;69.90;95310.47;5137569;27;983;-49
2023/01/09 09:29:45;;;;;;;;;;;;;;;4.92;67.68;95300.47;5119134;27;1393;-48
2023/01/09 09:32:11;;;;;;;;;;;;;;;4.84;67.96;95293.97;5137357;27;965;-48
2023/01/09 09:34:38;;;;;;;;;;;;;;;4.73;68.82;95280.75;5136987;27;1093;-48
2023/01/09 09:37:04;;;;;;;;;;;;;;;4.77;68.94;95271.56;5137513;27;962;-47
2023/01/09 09:39:30;;;;;;;;;;;;;;;4.88;68.91;95262.78;5137419;27;1049;-48
2023/01/09 09:44:45;;;;;;;;;;;;;;;5.23;67.97;95246.63;5136814;27;1983;-48
2023/01/09 09:47:36;;;;;;;;;;;;;;;5.43;67.62;95236.22;5137160;27;925;-48
2023/01/09 09:50:11;;;;;;;;;;;;;;;6.00;65.16;95229.66;5090954;27;1316;-48
2023/01/09 09:52:37;;;;;;;;;;;;;;;6.19;65.88;95220.09;5136881;27;1086;-47
2023/01/09 09:55:11;;;;;;;;;;;;;;;6.42;65.33;95213.63;5136716;27;1068;-48
2023/01/09 09:57:37;;;;;;;;;;;;;;;6.55;64.82;95196.63;5137132;27;985;-48
2023/01/09 10:00:05;;;;;;;;;;;;;;;7.09;62.73;95194.47;5135827;27;1051;-47
2023/01/09 10:02:50;;;;;;;;;;;;;;;7.31;62.27;95188.06;5136880;27;1034;-48
2023/01/09 10:05:36;;;;;;;;;;;;;;;7.43;62.82;95173.63;5136531;27;1991;-48
2023/01/09 10:08:05;;;;;;;;;;;;;;;7.80;61.85;95181.69;5136704;27;1078;-48
2023/01/09 10:10:42;;;;;;;;;;;;;;;7.98;60.36;95171.13;5135510;27;1237;-48
2023/01/09 10:16:07;;;;;;;;;;;;;;;7.85;61.95;95143.97;5136518;27;1019;-48
2023/01/09 10:18:52;;;;;;;;;;;;;;;7.48;62.63;95139.47;5136643;27;955;-48
2023/01/09 10:21:28;;;;;;;;;;;;;;;7.29;63.88;95134.16;5136135;27;1058;-48
2023/01/09 10:23:57;;;;;;;;;;;;;;;7.20;64.25;95131.34;5136054;27;1906;-48
2023/01/09 10:26:28;;;;;;;;;;;;;;;7.14;64.26;95126.59;5136266;27;1050;-48
2023/01/09 10:29:09;;;;;;;;;;;;;;;7.20;64.64;95125.22;5118309;27;1038;-47
2023/01/09 10:31:54;;;;;;;;;;;;;;;7.07;65.05;95122.81;5136067;27;1070;-48
2023/01/09 10:34:26;;;;;;;;;;;;;;;7.10;65.67;95113.75;5136217;27;1020;-48
2023/01/09 10:37:14;;;;;;;;;;;;;;;7.65;64.17;95113.09;5136085;27;1488;-49
2023/01/09 10:40:03;;;;;;;;;;;;;;;7.66;63.75;95104.97;5136078;27;1027;-49
2023/01/09 10:42:46;;;;;;;;;;;;;;;8.04;62.67;95089.81;5122326;27;1792;-49
2023/01/09 10:45:41;;;;;;;;;;;;;;;8.12;62.49;95089.94;5135882;27;1988;-49
2023/01/09 10:48:28;;;;;;;;;;;;;;;8.62;60.36;95086.03;5114070;27;1311;-49
2023/01/09 10:50:55;;;;;;;;;;;;;;;8.62;60.06;95069.22;5111737;27;1823;-49
2023/01/09 10:53:41;;;;;;;;;;;;;;;8.92;59.88;95065.34;5115238;28;1077;-49
2023/01/09 10:56:12;;;;;;;;;;;;;;;9.22;59.42;95053.44;5115150;28;1796;-49
2023/01/09 10:58:38;;;;;;;;;;;;;;;9.25;58.55;95042.44;5115343;28;964;-48
2023/01/09 11:01:05;;;;;;;;;;;;;;;9.11;59.05;95041.16;5114885;28;1194;-49
2023/01/09 11:03:31;;;;;;;;;;;;;;;9.05;59.00;95030.28;5115068;28;1987;-48
2023/01/09 11:05:58;;;;;;;;;;;;;;;8.77;60.11;95043.72;5113983;28;1020;-48
2023/01/09 11:08:24;;;;;;;;;;;;;;;8.81;60.18;95039.75;5114919;28;2047;-48
2023/01/09 11:10:54;;;;;;;;;;;;;;;8.76;60.58;95031.38;5114780;28;1154;-48
2023/01/09 11:13:22;;;;;;;;;;;;;;;8.81;60.42;95025.59;5114949;28;1043;-48
2023/01/09 11:16:20;;;;;;;;;;;;;;;8.71;61.09;95023.00;5114974;28;956;-48
2023/01/09 11:18:51;;;;;;;;;;;;;;;8.47;62.02;95018.28;5102444;28;1237;-49
2023/01/09 11:21:29;;;;;;;;;;;;;;;8.31;62.29;95014.44;5114688;28;1031;-49
2023/01/09 11:23:55;;;;;;;;;;;;;;;8.06;63.44;95013.31;5115021;27;1913;-49
2023/01/09 11:26:23;;;;;;;;;;;;;;;7.88;64.21;95013.28;5114748;28;1041;-49
2023/01/09 11:29:24;;;;;;;;;;;;;;;7.93;64.58;95011.00;5114660;28;949;-48
2023/01/09 11:31:50;;;;;;;;;;;;;;;8.02;64.62;95001.28;5091718;28;1403;-48
2023/01/09 11:34:17;;;;;;;;;;;;;;;8.10;64.39;95006.72;5109957;28;1092;-49
2023/01/09 11:36:45;;;;;;;;;;;;;;;8.26;63.47;95003.38;5114617;28;1024;-49
2023/01/09 11:39:20;;;;;;;;;;;;;;;8.36;63.29;95000.66;5114464;28;1057;-48
2023/01/09 11:41:51;;;;;;;;;;;;;;;8.52;63.24;94997.34;5114235;28;1216;-49
2023/01/09 11:44:17;;;;;;;;;;;;;;;8.79;62.23;94994.56;5154686;27;1917;-48
2023/01/09 11:46:44;;;;;;;;;;;;;;;8.86;62.55;94988.63;5155748;27;1023;-48
2023/01/09 11:49:13;;;;;;;;;;;;;;;9.04;61.86;94978.78;5155689;27;964;-49
2023/01/09 11:51:40;;;;;;;;;;;;;;;9.32;61.15;94986.63;5155320;27;1158;-48
2023/01/09 11:54:12;;;;;;;;;;;;;;;9.57;60.26;94985.75;5155554;27;1084;-48
2023/01/09 11:56:39;;;;;;;;;;;;;;;9.93;60.03;94964.22;5155329;27;1043;-49
2023/01/09 11:59:10;;;;;;;;;;;;;;;10.01;59.63;94958.06;5155625;27;1067;-49
2023/01/09 12:01:42;;;;;;;;;;;;;;;9.92;60.21;94956.38;5155020;27;1208;-49
2023/01/09 12:04:14;;;;;;;;;;;;;;;9.51;61.08;94953.56;5155257;27;1905;-49
2023/01/09 12:06:42;;;;;;;;;;;;;;;9.40;61.93;94954.66;5155194;27;1022;-49
2023/01/09 12:09:17;;;;;;;;;;;;;;;9.42;61.79;94949.16;5155478;27;974;-49
2023/01/09 12:11:51;;;;;;;;;;;;;;;9.35;62.23;94944.47;5155230;27;1088;-48
2023/01/09 12:14:23;;;;;;;;;;;;;;;9.38;62.05;94937.97;5155222;27;961;-48
2023/01/09 12:17:13;;;;;;;;;;;;;;;9.28;62.46;94939.94;5155258;27;1020;-48
2023/01/09 12:19:48;;;;;;;;;;;;;;;9.18;62.36;94938.19;5141713;27;1682;-48
2023/01/09 12:22:33;;;;;;;;;;;;;;;9.03;62.79;94941.59;5142648;27;1089;-48
2023/01/09 12:25:05;;;;;;;;;;;;;;;9.04;63.17;94919.28;5141360;27;1996;-48
2023/01/09 12:27:51;;;;;;;;;;;;;;;9.00;63.04;94916.06;5141178;27;1110;-48
2023/01/09 12:30:28;;;;;;;;;;;;;;;8.98;63.57;94915.41;5133608;27;2015;-48
2023/01/09 12:32:57;;;;;;;;;;;;;;;9.01;63.29;94903.56;5141171;27;1094;-49
2023/01/09 12:35:30;;;;;;;;;;;;;;;9.02;62.86;94903.41;5141040;27;1035;-49
2023/01/09 12:38:06;;;;;;;;;;;;;;;9.02;62.85;94908.75;5141242;27;955;-49
2023/01/09 12:40:41;;;;;;;;;;;;;;;8.97;63.27;94893.25;5141286;27;1079;-48
2023/01/09 12:43:17;;;;;;;;;;;;;;;8.87;63.46;94889.00;5140897;27;1206;-48
2023/01/09 12:45:55;;;;;;;;;;;;;;;8.94;63.51;94885.53;5141249;27;1018;-48
2023/01/09 12:48:39;;;;;;;;;;;;;;;8.92;63.85;94878.72;5141019;27;1002;-49
2023/01/09 12:51:05;;;;;;;;;;;;;;;8.83;63.78;94876.97;5140565;27;1207;-48
2023/01/09 12:53:37;;;;;;;;;;;;;;;8.84;63.51;94878.63;5140630;27;1054;-48
2023/01/09 12:56:07;;;;;;;;;;;;;;;8.84;63.94;94868.84;5141062;27;964;-48
2023/01/09 12:58:45;;;;;;;;;;;;;;;8.88;63.65;94872.84;5140929;27;1043;-48
2023/01/09 13:01:21;;;;;;;;;;;;;;;8.93;63.27;94873.19;5140817;27;1004;-48
2023/01/09 13:03:55;;;;;;;;;;;;;;;8.94;63.19;94874.06;5140721;27;2012;-48
2023/01/09 13:06:22;;;;;;;;;;;;;;;9.03;63.23;94870.44;5140996;27;990;-48
2023/01/09 13:09:00;;;;;;;;;;;;;;;9.09;63.24;94855.63;5140739;27;1031;-48
2023/01/09 13:11:46;;;;;;;;;;;;;;;8.97;63.24;94857.72;5140861;27;1247;-48
2023/01/09 13:14:31;;;;;;;;;;;;;;;8.93;64.09;94845.69;5140457;27;1256;-48
2023/01/09 13:16:58;;;;;;;;;;;;;;;8.89;63.92;94849.69;5140865;27;1078;-49
2023/01/09 13:19:24;;;;;;;;;;;;;;;9.01;64.21;94832.44;5140633;27;1038;-49
2023/01/09 13:21:51;;;;;;;;;;;;;;;9.55;64.11;94835.63;5140820;27;965;-48
2023/01/09 13:24:36;;;;;;;;;;;;;;;10.05;63.12;94838.38;5140075;27;2384;-48
2023/01/09 13:27:05;;;;;;;;;;;;;;;10.62;61.23;94833.06;5140889;27;1024;-48
2023/01/09 13:29:34;;;;;;;;;;;;;;;10.87;59.87;94835.69;5122411;27;1023;-48
2023/01/09 13:32:04;;;;;;;;;;;;;;;10.91;59.50;94834.38;5140326;27;1023;-49
2023/01/09 13:34:33;;;;;;;;;;;;;;;10.91;59.55;94829.84;5137995;27;1082;-48
2023/01/09 13:36:59;;;;;;;;;;;;;;;10.90;59.36;94830.00;5137214;27;1102;-49